createdAt,value
2023-03-01T00:01:07.579Z,9.27
2023-03-01T00:03:34.571Z,9.29
2023-03-01T00:06:01.963Z,9.17
2023-03-01T00:08:29.583Z,9.16
2023-03-01T00:11:09.320Z,9.11
2023-03-01T00:13:37.449Z,9.12
2023-03-01T00:16:14.137Z,9.06
2023-03-01T00:18:41.786Z,8.98
2023-03-01T00:21:08.829Z,8.97
2023-03-01T00:23:36.429Z,8.97
2023-03-01T00:26:07.449Z,8.96
2023-03-01T00:28:34.559Z,8.98
2023-03-01T00:31:11.590Z,8.89
2023-03-01T00:33:40.244Z,8.84
2023-03-01T00:36:07.784Z,8.81
2023-03-01T00:38:39.878Z,8.74
2023-03-01T00:41:09.051Z,8.74
2023-03-01T00:43:37.790Z,8.69
2023-03-01T00:46:11.612Z,8.70
2023-03-01T00:48:39.355Z,8.70
2023-03-01T00:51:18.536Z,8.68
2023-03-01T00:53:46.741Z,8.69
2023-03-01T00:56:15.124Z,8.71
2023-03-01T00:58:42.481Z,8.63
2023-03-01T01:01:18.598Z,8.46
2023-03-01T01:03:57.692Z,8.53
2023-03-01T01:06:34.169Z,8.51
2023-03-01T01:09:02.484Z,8.46
2023-03-01T01:11:30.691Z,8.42
2023-03-01T01:13:58.821Z,8.37
2023-03-01T01:16:28.779Z,8.34
2023-03-01T01:18:57.659Z,8.38
2023-03-01T01:21:25.376Z,8.41
2023-03-01T01:23:53.073Z,8.39
2023-03-01T01:26:25.383Z,8.41
2023-03-01T01:28:53.668Z,8.38
2023-03-01T01:31:21.927Z,8.38
2023-03-01T01:33:48.918Z,8.36
2023-03-01T01:36:15.953Z,8.34
2023-03-01T01:38:46.522Z,8.37
2023-03-01T01:41:15.490Z,8.20
2023-03-01T01:43:45.901Z,8.20
2023-03-01T01:46:32.919Z,8.19
2023-03-01T01:49:06.745Z,8.17
2023-03-01T01:51:40.331Z,8.18
2023-03-01T01:54:13.585Z,8.19
2023-03-01T01:56:45.352Z,8.16
2023-03-01T01:59:13.424Z,8.17
2023-03-01T02:01:40.367Z,8.13
2023-03-01T02:04:10.128Z,8.12
2023-03-01T02:06:51.485Z,8.11
2023-03-01T02:09:21.923Z,7.96
2023-03-01T02:11:50.157Z,7.99
2023-03-01T02:14:17.584Z,7.88
2023-03-01T02:16:45.275Z,7.84
2023-03-01T02:19:40.473Z,7.70
2023-03-01T02:22:20.234Z,7.71
2023-03-01T02:24:53.256Z,7.71
2023-03-01T02:27:25.857Z,7.70
2023-03-01T02:29:53.170Z,7.79
2023-03-01T02:32:26.249Z,7.83
2023-03-01T02:34:57.412Z,7.85
2023-03-01T02:37:26.990Z,7.84
2023-03-01T02:39:59.532Z,7.81
2023-03-01T02:42:36.440Z,7.76
2023-03-01T02:45:03.882Z,7.79
2023-03-01T02:47:30.881Z,7.68
2023-03-01T02:49:58.830Z,7.53
2023-03-01T02:52:38.893Z,7.47
2023-03-01T02:55:14.016Z,7.52
2023-03-01T02:57:44.786Z,7.57
2023-03-01T03:00:29.550Z,7.57
2023-03-01T03:02:58.261Z,7.58
2023-03-01T03:05:29.074Z,7.58
2023-03-01T03:07:59.401Z,7.58
2023-03-01T03:10:33.771Z,7.56
2023-03-01T03:13:12.612Z,7.51
2023-03-01T03:15:40.354Z,7.49
2023-03-01T03:18:11.093Z,7.52
2023-03-01T03:20:39.927Z,7.40
2023-03-01T03:23:07.130Z,7.42
2023-03-01T03:25:38.839Z,7.40
2023-03-01T03:28:10.786Z,7.42
2023-03-01T03:30:40.580Z,7.44
2023-03-01T03:33:07.825Z,7.39
2023-03-01T03:35:48.467Z,7.37
2023-03-01T03:38:18.241Z,7.37
2023-03-01T03:40:50.263Z,7.37
2023-03-01T03:43:20.922Z,7.31
2023-03-01T03:45:50.069Z,7.31
2023-03-01T03:48:18.263Z,7.29
2023-03-01T03:50:50.525Z,7.27
2023-03-01T03:53:17.985Z,7.24
2023-03-01T03:55:45.692Z,7.25
2023-03-01T03:58:12.703Z,7.22
2023-03-01T04:00:44.708Z,7.22
2023-03-01T04:03:13.867Z,7.21
2023-03-01T04:05:41.870Z,7.19
2023-03-01T04:08:09.950Z,7.19
2023-03-01T04:10:45.598Z,7.19
2023-03-01T04:13:16.980Z,7.14
2023-03-01T04:15:46.932Z,7.13
2023-03-01T04:18:15.421Z,7.10
2023-03-01T04:20:44.205Z,7.09
2023-03-01T04:23:22.275Z,6.99
2023-03-01T04:25:56.460Z,7.01
2023-03-01T04:28:35.289Z,6.96
2023-03-01T04:31:18.500Z,6.93
2023-03-01T04:33:48.408Z,6.85
2023-03-01T04:36:17.675Z,6.82
2023-03-01T04:38:48.533Z,6.77
2023-03-01T04:41:17.951Z,6.73
2023-03-01T04:43:45.209Z,6.70
2023-03-01T04:46:15.831Z,6.65
2023-03-01T04:48:44.940Z,6.67
2023-03-01T04:51:15.392Z,6.56
2023-03-01T04:53:43.108Z,6.57
2023-03-01T04:56:10.476Z,6.59
2023-03-01T04:58:38.234Z,6.57
2023-03-01T05:01:16.506Z,6.47
2023-03-01T05:03:48.444Z,6.46
2023-03-01T05:06:16.589Z,6.44
2023-03-01T05:08:44.536Z,6.46
2023-03-01T05:11:12.346Z,6.42
2023-03-01T05:13:40.382Z,6.40
2023-03-01T05:16:12.584Z,6.40
2023-03-01T05:18:41.049Z,6.38
2023-03-01T05:21:12.938Z,6.33
2023-03-01T05:23:40.349Z,6.33
2023-03-01T05:26:16.123Z,6.29
2023-03-01T05:28:52.976Z,6.24
2023-03-01T05:31:19.870Z,6.23
2023-03-01T05:33:47.015Z,6.20
2023-03-01T05:36:13.950Z,6.16
2023-03-01T05:38:40.886Z,6.15
2023-03-01T05:41:16.158Z,6.15
2023-03-01T05:43:44.667Z,6.14
2023-03-01T05:46:13.452Z,6.10
2023-03-01T05:48:40.404Z,6.04
2023-03-01T05:51:07.444Z,6.03
2023-03-01T05:53:34.406Z,6.00
2023-03-01T05:56:04.749Z,5.97
2023-03-01T05:58:31.923Z,5.95
2023-03-01T06:00:58.901Z,5.90
2023-03-01T06:03:25.818Z,5.92
2023-03-01T06:05:57.891Z,5.91
2023-03-01T06:08:25.887Z,5.91
2023-03-01T06:10:52.759Z,5.91
2023-03-01T06:13:19.804Z,5.92
2023-03-01T06:15:46.781Z,5.89
2023-03-01T06:18:13.737Z,5.88
2023-03-01T06:20:40.678Z,5.82
2023-03-01T06:23:09.125Z,5.85
2023-03-01T06:25:36.645Z,5.88
2023-03-01T06:28:03.904Z,5.88
2023-03-01T06:30:30.934Z,5.90
2023-03-01T06:33:01.866Z,5.92
2023-03-01T06:35:31.029Z,5.93
2023-03-01T06:37:59.841Z,5.92
2023-03-01T06:40:27.213Z,5.93
2023-03-01T06:42:54.287Z,5.96
2023-03-01T06:45:22.060Z,6.30
2023-03-01T06:47:49.154Z,6.77
2023-03-01T06:50:17.116Z,7.28
2023-03-01T06:55:14.052Z,8.26
2023-03-01T06:57:40.981Z,8.79
2023-03-01T07:00:09.222Z,9.33
2023-03-01T07:02:36.150Z,9.78
2023-03-01T07:05:03.079Z,10.21
2023-03-01T07:07:29.972Z,10.73
2023-03-01T07:09:57.371Z,11.13
2023-03-01T07:12:24.637Z,11.62
2023-03-01T07:14:51.546Z,11.93
2023-03-01T07:17:18.481Z,12.37
2023-03-01T07:19:46.103Z,12.95
2023-03-01T07:22:13.003Z,13.40
2023-03-01T07:24:39.957Z,14.05
2023-03-01T07:27:06.914Z,14.63
2023-03-01T07:29:34.261Z,15.12
2023-03-01T07:32:01.204Z,15.73
2023-03-01T07:34:28.143Z,16.08
2023-03-01T07:36:55.179Z,16.64
2023-03-01T07:39:24.182Z,17.07
2023-03-01T07:41:51.968Z,17.53
2023-03-01T07:44:22.535Z,17.93
2023-03-01T07:46:49.526Z,18.21
2023-03-01T07:49:16.370Z,18.77
2023-03-01T07:51:44.636Z,19.24
2023-03-01T07:54:11.533Z,19.66
2023-03-01T07:56:38.423Z,19.90
2023-03-01T07:59:06.816Z,20.24
2023-03-01T08:01:33.823Z,20.64
2023-03-01T08:04:00.711Z,21.14
2023-03-01T08:06:27.627Z,21.59
2023-03-01T08:08:56.433Z,21.98
2023-03-01T08:11:24.334Z,22.59
2023-03-01T08:13:51.544Z,22.70
2023-03-01T08:16:20.106Z,23.14
2023-03-01T08:18:47.079Z,23.46
2023-03-01T08:21:16.919Z,23.97
2023-03-01T08:23:44.489Z,24.38
2023-03-01T08:26:19.620Z,24.82
2023-03-01T08:28:47.834Z,25.00
2023-03-01T08:31:21.461Z,25.45
2023-03-01T08:33:52.603Z,25.90
2023-03-01T08:36:19.660Z,26.37
2023-03-01T08:38:47.035Z,26.86
2023-03-01T08:41:14.116Z,27.16
2023-03-01T08:43:41.307Z,27.56
2023-03-01T08:46:08.733Z,27.82
2023-03-01T08:48:35.597Z,28.08
2023-03-01T08:51:10.281Z,28.19
2023-03-01T08:53:37.465Z,28.62
2023-03-01T08:56:05.576Z,29.04
2023-03-01T08:58:33.207Z,29.30
2023-03-01T09:01:00.371Z,29.61
2023-03-01T09:03:28.302Z,29.82
2023-03-01T09:06:01.629Z,30.06
2023-03-01T09:08:28.833Z,29.82
2023-03-01T09:10:55.942Z,30.48
2023-03-01T09:13:25.907Z,30.83
2023-03-01T09:15:52.974Z,30.94
2023-03-01T09:18:19.888Z,31.39
2023-03-01T09:20:46.869Z,31.82
2023-03-01T09:23:13.769Z,31.84
2023-03-01T09:25:40.652Z,32.34
2023-03-01T09:28:07.827Z,32.41
2023-03-01T09:30:34.737Z,32.69
2023-03-01T09:33:01.690Z,32.89
2023-03-01T09:35:29.521Z,33.19
2023-03-01T09:37:56.361Z,33.42
2023-03-01T09:40:28.112Z,33.46
2023-03-01T09:43:12.802Z,33.83
2023-03-01T09:45:45.238Z,34.01
2023-03-01T09:48:19.118Z,34.24
2023-03-01T09:50:50.104Z,34.41
2023-03-01T09:53:32.407Z,34.35
2023-03-01T09:56:22.027Z,34.88
2023-03-01T09:58:56.437Z,35.22
2023-03-01T10:01:47.885Z,35.68
2023-03-01T10:04:39.427Z,36.05
2023-03-01T10:07:12.266Z,35.77
2023-03-01T10:09:42.949Z,36.17
2023-03-01T10:12:14.937Z,36.46
2023-03-01T10:14:44.583Z,36.13
2023-03-01T10:17:58.041Z,35.83
2023-03-01T10:20:53.311Z,35.46
2023-03-01T10:23:20.540Z,35.26
2023-03-01T10:26:37.019Z,35.05
2023-03-01T10:29:12.904Z,35.39
2023-03-01T10:31:47.131Z,35.97
2023-03-01T10:34:32.060Z,35.78
2023-03-01T10:37:22.318Z,36.39
2023-03-01T10:39:59.413Z,36.89
2023-03-01T10:42:35.264Z,36.73
2023-03-01T10:45:31.187Z,37.22
2023-03-01T10:48:22.301Z,34.73
2023-03-01T10:51:07.069Z,35.57
2023-03-01T10:53:49.168Z,36.06
2023-03-01T10:56:16.765Z,36.11
2023-03-01T10:59:05.420Z,35.61
2023-03-01T11:01:36.804Z,33.53
2023-03-01T11:04:06.935Z,33.89
2023-03-01T11:06:39.219Z,34.35
2023-03-01T11:09:28.399Z,34.43
2023-03-01T11:11:57.472Z,34.22
2023-03-01T11:14:28.118Z,33.84
2023-03-01T11:17:16.796Z,33.12
2023-03-01T11:19:54.238Z,31.89
2023-03-01T11:22:28.465Z,31.94
2023-03-01T11:25:09.067Z,31.17
2023-03-01T11:27:42.090Z,31.21
2023-03-01T11:30:36.656Z,31.17
2023-03-01T11:33:09.406Z,30.21
2023-03-01T11:35:43.904Z,27.86
2023-03-01T11:38:27.534Z,25.32
2023-03-01T11:41:09.761Z,23.50
2023-03-01T11:43:45.772Z,21.86
2023-03-01T11:46:27.927Z,20.08
2023-03-01T11:49:13.923Z,18.90
2023-03-01T11:52:06.506Z,17.95
2023-03-01T11:55:01.348Z,17.63
2023-03-01T11:57:49.669Z,17.73
2023-03-01T12:00:52.783Z,17.86
2023-03-01T12:03:54.796Z,17.94
2023-03-01T12:06:41.658Z,18.08
2023-03-01T12:09:17.578Z,17.27
2023-03-01T12:11:53.684Z,17.58
2023-03-01T12:14:32.076Z,17.33
2023-03-01T12:17:33.188Z,17.57
2023-03-01T12:20:15.261Z,17.29
2023-03-01T12:22:57.378Z,17.35
2023-03-01T12:26:14.097Z,17.34
2023-03-01T12:29:03.375Z,17.20
2023-03-01T12:32:10.139Z,17.21
2023-03-01T12:35:00.934Z,17.29
2023-03-01T12:38:06.905Z,17.23
2023-03-01T12:40:42.915Z,16.93
2023-03-01T12:43:26.903Z,16.41
2023-03-01T12:46:22.557Z,16.33
2023-03-01T12:49:18.042Z,16.48
2023-03-01T12:52:26.744Z,16.28
2023-03-01T12:54:57.281Z,16.22
2023-03-01T12:57:38.194Z,16.31
2023-03-01T13:00:11.509Z,16.31
2023-03-01T13:02:56.112Z,16.32
2023-03-01T13:05:32.653Z,16.02
2023-03-01T13:08:21.917Z,15.99
2023-03-01T13:10:53.200Z,15.89
2023-03-01T13:13:26.032Z,15.80
2023-03-01T13:15:53.812Z,16.01
2023-03-01T13:18:20.593Z,15.69
2023-03-01T13:20:50.329Z,15.67
2023-03-01T13:23:23.278Z,15.32
2023-03-01T13:26:01.997Z,15.23
2023-03-01T13:28:49.947Z,15.09
2023-03-01T13:31:16.873Z,14.89
2023-03-01T13:33:59.734Z,14.69
2023-03-01T13:36:30.392Z,14.58
2023-03-01T13:39:01.931Z,14.51
2023-03-01T13:41:44.151Z,14.30
2023-03-01T13:44:34.371Z,14.17
2023-03-01T13:47:07.310Z,14.19
2023-03-01T13:50:01.555Z,14.31
2023-03-01T13:52:34.336Z,14.40
2023-03-01T13:55:05.000Z,14.57
2023-03-01T13:57:35.807Z,14.71
2023-03-01T14:00:05.862Z,14.75
2023-03-01T14:02:35.353Z,14.67
2023-03-01T14:05:02.549Z,14.66
2023-03-01T14:07:32.729Z,14.74
2023-03-01T14:10:02.816Z,14.82
2023-03-01T14:12:32.600Z,14.91
2023-03-01T14:15:10.964Z,14.96
2023-03-01T14:17:46.967Z,14.98
2023-03-01T14:20:21.282Z,14.92
2023-03-01T14:22:53.177Z,14.90
2023-03-01T14:25:34.796Z,14.85
2023-03-01T14:28:05.784Z,14.85
2023-03-01T14:30:38.141Z,14.81
2023-03-01T14:33:17.879Z,14.45
2023-03-01T14:35:55.161Z,14.26
2023-03-01T14:38:38.436Z,14.26
2023-03-01T14:41:10.340Z,14.18
2023-03-01T14:43:40.177Z,14.05
2023-03-01T14:46:07.164Z,14.07
2023-03-01T14:48:34.881Z,14.06
2023-03-01T14:51:01.920Z,14.08
2023-03-01T14:53:34.083Z,14.10
2023-03-01T14:56:05.051Z,14.05
2023-03-01T14:58:34.943Z,14.04
2023-03-01T15:01:05.556Z,14.05
2023-03-01T15:03:42.017Z,14.15
2023-03-01T15:06:09.796Z,14.03
2023-03-01T15:08:38.270Z,14.07
2023-03-01T15:11:09.148Z,14.03
2023-03-01T15:13:36.741Z,13.96
2023-03-01T15:16:16.184Z,13.74
2023-03-01T15:18:49.401Z,13.70
2023-03-01T15:21:28.933Z,13.56
2023-03-01T15:24:01.790Z,13.58
2023-03-01T15:26:42.991Z,13.50
2023-03-01T15:29:19.652Z,13.30
2023-03-01T15:31:59.549Z,13.14
2023-03-01T15:34:33.283Z,13.08
2023-03-01T15:37:06.642Z,13.04
2023-03-01T15:39:53.715Z,13.02
2023-03-01T15:42:29.883Z,13.06
2023-03-01T15:45:18.149Z,13.07
2023-03-01T15:47:51.329Z,13.03
2023-03-01T15:50:25.122Z,13.05
2023-03-01T15:52:53.212Z,13.00
2023-03-01T15:55:29.691Z,12.91
2023-03-01T15:58:07.962Z,13.04
2023-03-01T16:00:35.254Z,13.03
2023-03-01T16:03:04.066Z,12.86
2023-03-01T16:05:33.662Z,13.03
2023-03-01T16:08:01.671Z,12.96
2023-03-01T16:10:29.556Z,12.74
2023-03-01T16:12:56.473Z,12.88
2023-03-01T16:15:29.526Z,12.99
2023-03-01T16:17:59.246Z,12.90
2023-03-01T16:20:29.193Z,12.93
2023-03-01T16:23:06.101Z,13.00
2023-03-01T16:25:34.122Z,13.03
2023-03-01T16:28:05.134Z,13.04
2023-03-01T16:30:32.287Z,12.98
2023-03-01T16:32:59.599Z,13.04
2023-03-01T16:35:26.818Z,13.06
2023-03-01T16:37:55.014Z,13.06
2023-03-01T16:40:29.712Z,13.06
2023-03-01T16:43:02.195Z,12.97
2023-03-01T16:45:35.527Z,12.94
2023-03-01T16:48:03.849Z,12.88
2023-03-01T16:50:30.922Z,12.92
2023-03-01T16:53:01.448Z,12.91
2023-03-01T16:55:29.066Z,12.80
2023-03-01T16:57:56.051Z,12.81
2023-03-01T17:00:23.627Z,12.81
2023-03-01T17:02:50.579Z,12.55
2023-03-01T17:05:18.436Z,12.56
2023-03-01T17:07:45.302Z,12.62
2023-03-01T17:10:12.479Z,12.66
2023-03-01T17:12:39.680Z,12.65
2023-03-01T17:15:07.440Z,12.64
2023-03-01T17:17:35.716Z,12.57
2023-03-01T17:20:04.860Z,12.53
2023-03-01T17:22:32.012Z,12.52
2023-03-01T17:24:59.065Z,12.49
2023-03-01T17:27:26.064Z,12.42
2023-03-01T17:29:52.973Z,12.41
2023-03-01T17:32:20.080Z,12.41
2023-03-01T17:34:47.128Z,12.40
2023-03-01T17:37:14.144Z,12.33
2023-03-01T17:39:41.071Z,12.32
2023-03-01T17:42:08.097Z,12.27
2023-03-01T17:44:35.124Z,12.24
2023-03-01T17:47:03.301Z,12.22
2023-03-01T17:49:30.518Z,12.22
2023-03-01T17:51:57.662Z,12.16
2023-03-01T17:54:24.845Z,12.17
2023-03-01T17:56:51.982Z,12.14
2023-03-01T17:59:19.524Z,12.14
2023-03-01T18:01:47.336Z,12.13
2023-03-01T18:04:14.376Z,12.15
2023-03-01T18:06:41.646Z,12.12
2023-03-01T18:09:08.751Z,12.08
2023-03-01T18:11:36.325Z,12.05
2023-03-01T18:14:04.225Z,12.03
2023-03-01T18:16:32.616Z,11.99
2023-03-01T18:19:01.406Z,11.99
2023-03-01T18:21:29.804Z,12.00
2023-03-01T18:23:57.322Z,11.96
2023-03-01T18:26:25.301Z,11.91
2023-03-01T18:28:52.815Z,11.87
2023-03-01T18:31:23.035Z,11.83
2023-03-01T18:33:52.459Z,11.76
2023-03-01T18:36:25.064Z,11.75
2023-03-01T18:38:56.627Z,11.71
2023-03-01T18:41:28.513Z,11.68
2023-03-01T18:43:57.174Z,11.60
2023-03-01T18:46:24.610Z,11.56
2023-03-01T18:48:53.812Z,11.56
2023-03-01T18:51:23.994Z,11.47
2023-03-01T18:53:51.426Z,11.47
2023-03-01T18:56:18.445Z,11.46
2023-03-01T18:58:45.416Z,11.42
2023-03-01T19:01:23.800Z,11.33
2023-03-01T19:03:51.178Z,11.34
2023-03-01T19:06:19.321Z,11.36
2023-03-01T19:08:46.869Z,11.34
2023-03-01T19:11:17.759Z,11.34
2023-03-01T19:13:46.332Z,11.33
2023-03-01T19:16:16.789Z,11.21
2023-03-01T19:18:50.356Z,11.19
2023-03-01T19:21:23.113Z,11.10
2023-03-01T19:23:50.034Z,11.04
2023-03-01T19:26:20.523Z,10.88
2023-03-01T19:28:48.670Z,10.86
2023-03-01T19:31:18.980Z,10.82
2023-03-01T19:33:46.116Z,10.78
2023-03-01T19:36:14.970Z,10.80
2023-03-01T19:38:43.006Z,10.74
2023-03-01T19:41:18.279Z,10.77
2023-03-01T19:43:47.378Z,10.71
2023-03-01T19:46:15.221Z,10.64
2023-03-01T19:48:44.746Z,10.64
2023-03-01T19:51:13.658Z,10.68
2023-03-01T19:53:43.446Z,10.67
2023-03-01T19:56:10.726Z,10.65
2023-03-01T19:58:38.366Z,10.59
2023-03-01T20:01:05.703Z,10.59
2023-03-01T20:03:35.796Z,10.57
2023-03-01T20:06:10.760Z,10.58
2023-03-01T20:08:37.918Z,10.54
2023-03-01T20:11:07.403Z,10.51
2023-03-01T20:13:34.818Z,10.44
2023-03-01T20:16:02.659Z,10.47
2023-03-01T20:18:30.180Z,10.43
2023-03-01T20:20:59.293Z,10.36
2023-03-01T20:23:26.847Z,10.33
2023-03-01T20:26:02.372Z,10.34
2023-03-01T20:28:29.261Z,10.30
2023-03-01T20:31:02.249Z,10.28
2023-03-01T20:33:29.355Z,10.23
2023-03-01T20:35:56.349Z,10.21
2023-03-01T20:38:23.340Z,10.11
2023-03-01T20:40:50.191Z,9.99
2023-03-01T20:43:17.154Z,10.01
2023-03-01T20:45:44.056Z,9.95
2023-03-01T20:48:10.989Z,9.88
2023-03-01T20:50:41.132Z,9.90
2023-03-01T20:53:08.232Z,9.85
2023-03-01T20:55:35.536Z,9.82
2023-03-01T20:58:02.534Z,9.82
2023-03-01T21:00:29.661Z,9.81
2023-03-01T21:02:56.577Z,9.83
2023-03-01T21:05:23.770Z,9.83
2023-03-01T21:07:51.216Z,9.83
2023-03-01T21:10:18.388Z,9.79
2023-03-01T21:12:45.353Z,9.76
2023-03-01T21:15:23.520Z,9.78
2023-03-01T21:17:55.167Z,9.78
2023-03-01T21:20:22.025Z,9.77
2023-03-01T21:22:49.029Z,9.69
2023-03-01T21:25:15.987Z,9.70
2023-03-01T21:27:42.974Z,9.67
2023-03-01T21:30:11.605Z,9.67
2023-03-01T21:32:38.610Z,9.63
2023-03-01T21:35:05.867Z,9.61
2023-03-01T21:37:32.830Z,9.51
2023-03-01T21:39:59.727Z,9.41
2023-03-01T21:42:26.637Z,9.34
2023-03-01T21:44:53.641Z,9.32
2023-03-01T21:47:20.578Z,9.31
2023-03-01T21:49:47.462Z,9.36
2023-03-01T21:52:16.908Z,9.33
2023-03-01T21:54:44.713Z,9.32
2023-03-01T21:57:12.352Z,9.31
2023-03-01T21:59:39.346Z,9.33
2023-03-01T22:02:06.204Z,9.32
2023-03-01T22:04:33.077Z,9.33
2023-03-01T22:07:00.152Z,9.24
2023-03-01T22:09:27.146Z,9.18
2023-03-01T22:11:58.777Z,9.11
2023-03-01T22:14:26.999Z,9.10
2023-03-01T22:16:54.142Z,9.08
2023-03-01T22:19:22.142Z,9.02
2023-03-01T22:21:51.465Z,9.04
2023-03-01T22:24:20.404Z,8.98
2023-03-01T22:26:49.194Z,8.97
2023-03-01T22:29:19.327Z,8.98
2023-03-01T22:31:46.318Z,8.98
2023-03-01T22:34:14.821Z,8.99
2023-03-01T22:36:41.821Z,9.00
2023-03-01T22:39:09.440Z,8.98
2023-03-01T22:41:44.793Z,8.96
2023-03-01T22:44:13.521Z,8.95
2023-03-01T22:46:40.883Z,8.97
2023-03-01T22:49:07.897Z,8.98
2023-03-01T22:51:38.615Z,8.97
2023-03-01T22:54:06.035Z,8.94
2023-03-01T22:56:36.714Z,8.95
2023-03-01T22:59:09.844Z,8.94
2023-03-01T23:01:38.694Z,8.92
2023-03-01T23:04:06.297Z,8.91
2023-03-01T23:06:33.579Z,8.92
2023-03-01T23:09:04.621Z,8.90
2023-03-01T23:11:32.563Z,8.90
2023-03-01T23:13:59.806Z,8.87
2023-03-01T23:16:27.100Z,8.87
2023-03-01T23:19:01.012Z,8.86
2023-03-01T23:21:28.382Z,8.83
2023-03-01T23:23:56.202Z,8.81
2023-03-01T23:26:26.295Z,8.80
2023-03-01T23:28:53.489Z,8.81
2023-03-01T23:31:20.478Z,8.78
2023-03-01T23:33:48.057Z,8.75
2023-03-01T23:36:14.912Z,8.71
2023-03-01T23:38:42.266Z,8.71
2023-03-01T23:41:10.608Z,8.68
2023-03-01T23:43:37.566Z,8.64
2023-03-01T23:46:04.904Z,8.61
2023-03-01T23:48:31.852Z,8.57
2023-03-01T23:51:04.453Z,8.57
2023-03-01T23:53:31.777Z,8.56
2023-03-01T23:55:58.797Z,8.53
2023-03-01T23:58:28.695Z,8.52
